Pond: Past 24 Hour Conditions

 

Puvirnituq Airport

09:00 AM EDT 31 July 2014
This table is a summary of hourly weather conditions for the past 24 hours.
Date / Time
(EDT)
Wind(knots) Conditions Visibility(km) Pressure(kPa) Air tempC) Relative humidity(%) Dew pointC)
31 July 2014
9:00 calm Cloudy 16 101.7 12 89 10
8:00 calm Light Rain 19 101.7 11 91 10
7:00 E 3 Cloudy 16 101.6 11 93 10
6:00 ENE 5 Cloudy 16 101.6 10 95 10
5:00 ENE 3 Cloudy 16 101.6 11 94 10
4:00 ESE 4 Light Rain 13 101.6 11 96 10
3:00 E 7 Light Rain 19 101.6 11 97 10
2:00 E 7 Light Rain 19 101.5 11 97 10
1:00 E 9 Light Rain 19 101.5 12 97 11
0:00 E 8 Light Rain 19 101.5 12 93 11
30 July 2014
23:00 E 10 Cloudy 24 101.4 12 91 11
22:00 E 12 Cloudy 24 101.4 12 88 10
21:00 E 9 Light Rain 19 101.4 12 94 11
20:00 E 10 Light Rain 16 101.3 12 91 11
19:00 ENE 12 gust 18 Light Rain 16 101.3 13 91 11
18:00 E 13 gust 24 Light Rain 19 101.3 15 73 10
17:00 E 15 gust 21 Cloudy 24 101.2 15 72 10
16:00 E 10 Cloudy 24 101.1 17 65 10
15:00 ENE 15 gust 20 Cloudy 24 101.1 18 54 9
14:00 ENE 18 gust 24 Cloudy 24 101.1 18 51 8
13:00 ENE 17 Cloudy 24 101.1 19 50 8
12:00 NNE 18 gust 23 Cloudy 24 101.0 18 52 8
11:00 NE 18 gust 25 Cloudy 24 101.0 17 53 7
10:00 ENE 21 gust 26 Cloudy 24 101.0 18 48 7
9:00 NE 16 Cloudy 24 101.1 15 65 8
 
Map of Arctic - Eastern Arctic marine weather areas Baker Lake Airport Chesterfield Inlet Airport Coral Harbour Airport Gjoa Haven Airport Kugaaruk Airport Rankin Inlet Airport Shepherd Bay Airport Whale Cove Airport Arctic Bay Brevoort Island Qikiqtarjuaq Airport Cape Dorset Airport Cape Dyer Cape Hooper Clyde Airport Grise Fiord Airport Hall Beach Airport Igloolik Airport Iqaluit Airport Longstaff Bluff Pangnirtung Airport Pond Inlet Airport Repulse Bay Airport Resolute Airport Resolution Island Rowley Island Airport Taloyoak Airport Wager Bay Akulivik Airport Ivujivik Airport Puvirnituq Airport Kangiqsujuaq Airport Kangirsuk Airport Quaqtaq Airport Tasiujaq Airport Cape Kakkiviak Cape Kiglapait Nain Airport Saglek Cape Mercy Kimmirut Airport Aupaluk Airport Salluit Airport Kangiqsualujjuaq Airport Fort Ross
Legend: buoyBuoy land stationLand Station